Aérodrome :
LOGIN :

S'inscrire | Disclaimer

   EN    FR    IT 

 










Légende :    VFR   VFR Marginal   IFR   IFR Intensif   IFR Très Intensif
Visi : 
Plafond : 
>= 8 km
>= 3000ft
5 à 8 km
1000 à 3000 ft
1500m à 5 km
500 à 1000 ft
800 à 1500m
200 à 500 ft
< 800m
< 200 ft
Symboles :   Orages  Brouillard  Fortes neiges  Fortes précipitations  Vent > 20 kt
SIGMETs :   Divers  Orages  Givrage  Turbulence  Onde Orograph.  Cendres Volcan.






- Altitude de l'aérodrome : 74 ft
- Code IATA : EIN


EHEH - Eindhoven

DERNIER METAR :
  • 150025Z AUTO 04005KT 9999 OVC190 03/01 Q1002 BLU

METARs EXPIRÉS :
  • 142355Z AUTO 05005KT 9999 FEW110 OVC190 04/02 Q1002 BLU
  • 142325Z AUTO 04004KT 9999 OVC180 03/02 Q1003 BLU
  • 142255Z AUTO 06004KT 9999 OVC200 03/02 Q1002 BLU
  • 142225Z AUTO 04005KT 9999 OVC120 03/02 Q1002 BLU
  • 142208Z AUTO 04004KT 9999 OVC120 04/02 Q1002 BLU
  • 142155Z AUTO 06003KT 020V080 9999 OVC120 05/03 Q1003 BLU

TAF TAF EHEH
Valide du 15 à 00h jusqu'au 16 à 06h UTC


142352Z 1500/1606 05004KT CAVOK
BECMG 1504/1507 06010KT
PROB40
TEMPO 1504/1511 FEW008 BKN010
BECMG 1512/1515 13007KT BKN018
BECMG 1514/1516 SCT022
BECMG 1520/1522 VRB02KT
PROB40
TEMPO 1600/1604 4000 BR MIFG
BECMG 1603/1606 22007KT



MET'MAP, la Météo Aéronautique d'un coup d'oeil ! - Copyright ORBIFLY Décembre 2007 - Disclaimer

ORBIFLY MET'MAP TEAM :

Programmation & Développement : Alexandra Zaïnal
Conception & Développement : Baudouin d'Aumeries
Co-Programmation & Développement : Marc-Olivier Méhu
Soutien technique & logistique : Manuel Goepfert

Contact : metmap@orbifly.com




SOURCES & CREDITS :

   NOAA